sensor_id;sensor_type;location;lat;lon;timestamp;P1;durP1;ratioP1;P2;durP2;ratioP2
53040;SDS011;39326;42.650;23.248;2023-04-16T00:01:47;3.00;;;1.30;;
53040;SDS011;39326;42.650;23.248;2023-04-16T00:04:13;3.07;;;1.63;;
53040;SDS011;39326;42.650;23.248;2023-04-16T00:06:38;3.80;;;1.50;;
53040;SDS011;39326;42.650;23.248;2023-04-16T00:09:03;2.30;;;1.20;;
53040;SDS011;39326;42.650;23.248;2023-04-16T00:11:29;1.70;;;1.20;;
53040;SDS011;39326;42.650;23.248;2023-04-16T00:13:54;2.87;;;1.30;;
53040;SDS011;39326;42.650;23.248;2023-04-16T00:16:20;2.07;;;1.73;;
53040;SDS011;39326;42.650;23.248;2023-04-16T00:18:45;3.23;;;1.43;;
53040;SDS011;39326;42.650;23.248;2023-04-16T00:21:11;2.27;;;1.20;;
53040;SDS011;39326;42.650;23.248;2023-04-16T00:23:36;1.33;;;1.03;;
53040;SDS011;39326;42.650;23.248;2023-04-16T00:26:02;2.37;;;1.60;;
53040;SDS011;39326;42.650;23.248;2023-04-16T00:28:28;3.77;;;1.20;;
53040;SDS011;39326;42.650;23.248;2023-04-16T00:30:53;2.73;;;1.37;;
53040;SDS011;39326;42.650;23.248;2023-04-16T00:33:19;4.20;;;1.40;;
53040;SDS011;39326;42.650;23.248;2023-04-16T00:35:45;3.93;;;1.50;;
53040;SDS011;39326;42.650;23.248;2023-04-16T00:38:11;1.90;;;1.03;;
53040;SDS011;39326;42.650;23.248;2023-04-16T00:40:37;1.83;;;1.50;;
53040;SDS011;39326;42.650;23.248;2023-04-16T00:43:02;3.13;;;1.40;;
53040;SDS011;39326;42.650;23.248;2023-04-16T00:45:28;1.90;;;1.40;;
53040;SDS011;39326;42.650;23.248;2023-04-16T00:47:54;2.17;;;1.23;;
53040;SDS011;39326;42.650;23.248;2023-04-16T00:50:20;2.63;;;1.10;;
53040;SDS011;39326;42.650;23.248;2023-04-16T00:52:46;2.10;;;1.20;;
53040;SDS011;39326;42.650;23.248;2023-04-16T00:55:13;1.53;;;1.20;;
53040;SDS011;39326;42.650;23.248;2023-04-16T00:57:39;2.27;;;1.17;;
53040;SDS011;39326;42.650;23.248;2023-04-16T01:00:05;2.20;;;0.90;;
53040;SDS011;39326;42.650;23.248;2023-04-16T01:02:32;1.83;;;1.20;;
53040;SDS011;39326;42.650;23.248;2023-04-16T01:04:58;1.63;;;1.00;;
53040;SDS011;39326;42.650;23.248;2023-04-16T01:07:25;2.03;;;1.00;;
53040;SDS011;39326;42.650;23.248;2023-04-16T01:09:50;1.40;;;0.97;;
53040;SDS011;39326;42.650;23.248;2023-04-16T01:12:16;1.47;;;0.97;;
53040;SDS011;39326;42.650;23.248;2023-04-16T01:14:41;2.20;;;1.00;;
53040;SDS011;39326;42.650;23.248;2023-04-16T01:17:07;4.07;;;1.40;;
53040;SDS011;39326;42.650;23.248;2023-04-16T01:19:32;2.30;;;1.03;;
53040;SDS011;39326;42.650;23.248;2023-04-16T01:22:00;1.83;;;0.83;;
53040;SDS011;39326;42.650;23.248;2023-04-16T01:24:26;1.97;;;1.30;;
53040;SDS011;39326;42.650;23.248;2023-04-16T01:26:51;3.37;;;1.53;;
53040;SDS011;39326;42.650;23.248;2023-04-16T01:29:17;1.40;;;1.10;;
53040;SDS011;39326;42.650;23.248;2023-04-16T01:31:42;2.80;;;0.93;;
53040;SDS011;39326;42.650;23.248;2023-04-16T01:34:08;1.87;;;0.90;;
53040;SDS011;39326;42.650;23.248;2023-04-16T01:36:33;1.20;;;1.00;;
53040;SDS011;39326;42.650;23.248;2023-04-16T01:38:59;2.57;;;1.50;;
53040;SDS011;39326;42.650;23.248;2023-04-16T01:41:24;2.80;;;1.60;;
53040;SDS011;39326;42.650;23.248;2023-04-16T01:43:50;1.73;;;1.40;;
53040;SDS011;39326;42.650;23.248;2023-04-16T01:46:28;2.03;;;0.93;;
53040;SDS011;39326;42.650;23.248;2023-04-16T01:48:59;2.10;;;1.03;;
53040;SDS011;39326;42.650;23.248;2023-04-16T01:51:26;3.97;;;1.30;;
53040;SDS011;39326;42.650;23.248;2023-04-16T01:53:52;1.77;;;1.23;;
53040;SDS011;39326;42.650;23.248;2023-04-16T01:56:18;2.87;;;1.20;;
53040;SDS011;39326;42.650;23.248;2023-04-16T01:58:43;6.00;;;1.20;;
53040;SDS011;39326;42.650;23.248;2023-04-16T02:01:10;2.80;;;1.03;;
53040;SDS011;39326;42.650;23.248;2023-04-16T02:03:35;2.40;;;1.30;;
53040;SDS011;39326;42.650;23.248;2023-04-16T02:06:01;3.07;;;1.40;;
53040;SDS011;39326;42.650;23.248;2023-04-16T02:08:27;1.40;;;1.30;;
53040;SDS011;39326;42.650;23.248;2023-04-16T02:10:52;1.57;;;0.90;;
53040;SDS011;39326;42.650;23.248;2023-04-16T02:13:18;2.07;;;1.03;;
53040;SDS011;39326;42.650;23.248;2023-04-16T02:15:47;2.67;;;1.37;;
53040;SDS011;39326;42.650;23.248;2023-04-16T02:18:14;2.47;;;1.37;;
53040;SDS011;39326;42.650;23.248;2023-04-16T02:20:40;2.77;;;1.17;;
53040;SDS011;39326;42.650;23.248;2023-04-16T02:23:06;2.80;;;1.30;;
53040;SDS011;39326;42.650;23.248;2023-04-16T02:25:36;1.70;;;1.20;;
53040;SDS011;39326;42.650;23.248;2023-04-16T02:28:06;2.40;;;1.03;;
53040;SDS011;39326;42.650;23.248;2023-04-16T02:30:33;4.43;;;2.13;;
53040;SDS011;39326;42.650;23.248;2023-04-16T02:32:59;3.53;;;1.90;;
53040;SDS011;39326;42.650;23.248;2023-04-16T02:35:25;2.90;;;1.80;;
53040;SDS011;39326;42.650;23.248;2023-04-16T02:37:51;4.93;;;2.70;;
53040;SDS011;39326;42.650;23.248;2023-04-16T02:40:17;4.30;;;2.53;;
53040;SDS011;39326;42.650;23.248;2023-04-16T02:42:42;4.33;;;2.73;;
53040;SDS011;39326;42.650;23.248;2023-04-16T02:45:08;4.63;;;3.07;;
53040;SDS011;39326;42.650;23.248;2023-04-16T02:47:34;3.93;;;2.93;;
53040;SDS011;39326;42.650;23.248;2023-04-16T02:49:59;4.90;;;2.47;;
53040;SDS011;39326;42.650;23.248;2023-04-16T02:52:24;4.10;;;2.60;;
53040;SDS011;39326;42.650;23.248;2023-04-16T02:54:50;3.97;;;2.50;;
53040;SDS011;39326;42.650;23.248;2023-04-16T02:57:15;4.10;;;2.40;;
53040;SDS011;39326;42.650;23.248;2023-04-16T02:59:41;4.67;;;2.80;;
53040;SDS011;39326;42.650;23.248;2023-04-16T03:02:06;4.67;;;2.57;;
53040;SDS011;39326;42.650;23.248;2023-04-16T03:04:32;4.40;;;2.67;;
53040;SDS011;39326;42.650;23.248;2023-04-16T03:06:57;4.73;;;2.20;;
53040;SDS011;39326;42.650;23.248;2023-04-16T03:09:22;3.80;;;2.30;;
53040;SDS011;39326;42.650;23.248;2023-04-16T03:11:48;2.43;;;1.70;;
53040;SDS011;39326;42.650;23.248;2023-04-16T03:14:13;2.43;;;1.70;;
53040;SDS011;39326;42.650;23.248;2023-04-16T03:16:39;3.60;;;1.63;;
53040;SDS011;39326;42.650;23.248;2023-04-16T03:19:05;1.93;;;1.50;;
53040;SDS011;39326;42.650;23.248;2023-04-16T03:21:30;2.07;;;1.40;;
53040;SDS011;39326;42.650;23.248;2023-04-16T03:23:56;3.93;;;1.30;;
53040;SDS011;39326;42.650;23.248;2023-04-16T03:26:21;3.80;;;2.10;;
53040;SDS011;39326;42.650;23.248;2023-04-16T03:28:47;2.57;;;1.70;;
53040;SDS011;39326;42.650;23.248;2023-04-16T03:31:12;2.90;;;2.03;;
53040;SDS011;39326;42.650;23.248;2023-04-16T03:33:38;3.33;;;1.93;;
53040;SDS011;39326;42.650;23.248;2023-04-16T03:36:03;3.77;;;2.63;;
53040;SDS011;39326;42.650;23.248;2023-04-16T03:38:29;3.87;;;2.40;;
53040;SDS011;39326;42.650;23.248;2023-04-16T03:40:54;3.40;;;2.37;;
53040;SDS011;39326;42.650;23.248;2023-04-16T03:43:20;3.53;;;2.50;;
53040;SDS011;39326;42.650;23.248;2023-04-16T03:45:45;4.00;;;2.13;;
53040;SDS011;39326;42.650;23.248;2023-04-16T03:48:11;4.07;;;2.10;;
53040;SDS011;39326;42.650;23.248;2023-04-16T03:50:37;3.17;;;1.97;;
53040;SDS011;39326;42.650;23.248;2023-04-16T03:53:02;3.60;;;2.10;;
53040;SDS011;39326;42.650;23.248;2023-04-16T03:55:28;3.17;;;1.80;;
53040;SDS011;39326;42.650;23.248;2023-04-16T03:57:53;4.53;;;2.00;;
53040;SDS011;39326;42.650;23.248;2023-04-16T04:00:18;2.70;;;1.70;;
53040;SDS011;39326;42.650;23.248;2023-04-16T04:02:44;3.03;;;1.90;;
53040;SDS011;39326;42.650;23.248;2023-04-16T04:05:09;5.33;;;1.77;;
53040;SDS011;39326;42.650;23.248;2023-04-16T04:07:35;3.03;;;1.60;;
53040;SDS011;39326;42.650;23.248;2023-04-16T04:10:00;4.47;;;2.03;;
53040;SDS011;39326;42.650;23.248;2023-04-16T04:12:25;2.80;;;1.63;;
53040;SDS011;39326;42.650;23.248;2023-04-16T04:14:51;3.00;;;1.80;;
53040;SDS011;39326;42.650;23.248;2023-04-16T04:17:16;2.53;;;2.00;;
53040;SDS011;39326;42.650;23.248;2023-04-16T04:19:42;3.77;;;1.63;;
53040;SDS011;39326;42.650;23.248;2023-04-16T04:22:07;3.90;;;2.10;;
53040;SDS011;39326;42.650;23.248;2023-04-16T04:24:33;2.87;;;1.80;;
53040;SDS011;39326;42.650;23.248;2023-04-16T04:26:58;3.77;;;2.00;;
53040;SDS011;39326;42.650;23.248;2023-04-16T04:29:24;2.47;;;1.90;;
53040;SDS011;39326;42.650;23.248;2023-04-16T04:31:49;3.03;;;2.10;;
53040;SDS011;39326;42.650;23.248;2023-04-16T04:34:15;2.23;;;1.83;;
53040;SDS011;39326;42.650;23.248;2023-04-16T04:36:40;3.50;;;3.20;;
53040;SDS011;39326;42.650;23.248;2023-04-16T04:39:06;4.73;;;3.43;;
53040;SDS011;39326;42.650;23.248;2023-04-16T04:41:31;3.20;;;2.90;;
53040;SDS011;39326;42.650;23.248;2023-04-16T04:43:56;3.87;;;2.93;;
53040;SDS011;39326;42.650;23.248;2023-04-16T04:46:22;3.13;;;2.43;;
53040;SDS011;39326;42.650;23.248;2023-04-16T04:48:47;3.37;;;2.23;;
53040;SDS011;39326;42.650;23.248;2023-04-16T04:51:13;2.50;;;2.10;;
53040;SDS011;39326;42.650;23.248;2023-04-16T04:53:38;4.57;;;2.07;;
53040;SDS011;39326;42.650;23.248;2023-04-16T04:56:04;7.30;;;4.70;;
53040;SDS011;39326;42.650;23.248;2023-04-16T04:58:29;32.10;;;25.53;;
53040;SDS011;39326;42.650;23.248;2023-04-16T05:00:55;19.67;;;16.00;;
53040;SDS011;39326;42.650;23.248;2023-04-16T05:03:20;16.40;;;13.23;;
53040;SDS011;39326;42.650;23.248;2023-04-16T05:05:46;19.57;;;15.33;;
53040;SDS011;39326;42.650;23.248;2023-04-16T05:08:11;7.27;;;5.27;;
53040;SDS011;39326;42.650;23.248;2023-04-16T05:10:37;9.13;;;7.53;;
53040;SDS011;39326;42.650;23.248;2023-04-16T05:13:03;7.47;;;5.20;;
53040;SDS011;39326;42.650;23.248;2023-04-16T05:15:28;4.93;;;3.77;;
53040;SDS011;39326;42.650;23.248;2023-04-16T05:17:53;5.30;;;4.10;;
53040;SDS011;39326;42.650;23.248;2023-04-16T05:20:20;6.07;;;3.90;;
53040;SDS011;39326;42.650;23.248;2023-04-16T05:22:48;3.07;;;2.33;;
53040;SDS011;39326;42.650;23.248;2023-04-16T05:25:14;4.37;;;2.80;;
53040;SDS011;39326;42.650;23.248;2023-04-16T05:27:39;4.53;;;2.90;;
53040;SDS011;39326;42.650;23.248;2023-04-16T05:30:05;2.63;;;2.40;;
53040;SDS011;39326;42.650;23.248;2023-04-16T05:32:31;3.57;;;2.57;;
53040;SDS011;39326;42.650;23.248;2023-04-16T05:34:56;3.10;;;2.07;;
53040;SDS011;39326;42.650;23.248;2023-04-16T05:37:21;3.53;;;2.10;;
53040;SDS011;39326;42.650;23.248;2023-04-16T05:39:47;3.43;;;2.17;;
53040;SDS011;39326;42.650;23.248;2023-04-16T05:42:12;3.00;;;2.10;;
53040;SDS011;39326;42.650;23.248;2023-04-16T05:44:38;3.50;;;3.20;;
53040;SDS011;39326;42.650;23.248;2023-04-16T05:47:04;4.97;;;3.37;;
53040;SDS011;39326;42.650;23.248;2023-04-16T05:49:31;5.37;;;3.97;;
53040;SDS011;39326;42.650;23.248;2023-04-16T05:51:57;9.33;;;5.03;;
53040;SDS011;39326;42.650;23.248;2023-04-16T05:54:22;8.57;;;6.27;;
53040;SDS011;39326;42.650;23.248;2023-04-16T05:56:48;9.23;;;6.27;;
53040;SDS011;39326;42.650;23.248;2023-04-16T05:59:13;8.43;;;5.43;;
53040;SDS011;39326;42.650;23.248;2023-04-16T06:01:39;5.90;;;4.90;;
53040;SDS011;39326;42.650;23.248;2023-04-16T06:04:05;6.63;;;4.83;;
53040;SDS011;39326;42.650;23.248;2023-04-16T06:06:30;5.93;;;4.30;;
53040;SDS011;39326;42.650;23.248;2023-04-16T06:08:56;4.60;;;4.20;;
53040;SDS011;39326;42.650;23.248;2023-04-16T06:11:21;7.20;;;5.43;;
53040;SDS011;39326;42.650;23.248;2023-04-16T06:13:47;6.03;;;4.83;;
53040;SDS011;39326;42.650;23.248;2023-04-16T06:16:12;7.80;;;4.70;;
53040;SDS011;39326;42.650;23.248;2023-04-16T06:18:37;4.97;;;4.47;;
53040;SDS011;39326;42.650;23.248;2023-04-16T06:21:03;6.03;;;4.50;;
53040;SDS011;39326;42.650;23.248;2023-04-16T06:23:28;6.20;;;5.17;;
53040;SDS011;39326;42.650;23.248;2023-04-16T06:25:54;6.50;;;5.80;;
53040;SDS011;39326;42.650;23.248;2023-04-16T06:28:20;7.67;;;5.40;;
53040;SDS011;39326;42.650;23.248;2023-04-16T06:30:45;6.53;;;5.40;;
53040;SDS011;39326;42.650;23.248;2023-04-16T06:33:11;5.83;;;5.03;;
53040;SDS011;39326;42.650;23.248;2023-04-16T06:35:36;5.73;;;4.57;;
53040;SDS011;39326;42.650;23.248;2023-04-16T06:38:02;8.37;;;4.97;;
53040;SDS011;39326;42.650;23.248;2023-04-16T06:40:27;7.67;;;5.03;;
53040;SDS011;39326;42.650;23.248;2023-04-16T06:42:53;6.23;;;5.63;;
53040;SDS011;39326;42.650;23.248;2023-04-16T06:45:18;5.63;;;5.10;;
53040;SDS011;39326;42.650;23.248;2023-04-16T06:47:44;5.90;;;5.20;;
53040;SDS011;39326;42.650;23.248;2023-04-16T06:50:10;6.10;;;5.30;;
53040;SDS011;39326;42.650;23.248;2023-04-16T06:52:35;6.07;;;5.13;;
53040;SDS011;39326;42.650;23.248;2023-04-16T06:55:01;9.20;;;6.10;;
53040;SDS011;39326;42.650;23.248;2023-04-16T06:57:26;6.63;;;5.70;;
53040;SDS011;39326;42.650;23.248;2023-04-16T06:59:52;8.43;;;6.40;;
53040;SDS011;39326;42.650;23.248;2023-04-16T07:02:17;6.07;;;4.90;;
53040;SDS011;39326;42.650;23.248;2023-04-16T07:04:42;6.30;;;5.70;;
53040;SDS011;39326;42.650;23.248;2023-04-16T07:07:08;7.67;;;5.43;;
53040;SDS011;39326;42.650;23.248;2023-04-16T07:09:33;6.47;;;5.43;;
53040;SDS011;39326;42.650;23.248;2023-04-16T07:11:59;6.93;;;5.30;;
53040;SDS011;39326;42.650;23.248;2023-04-16T07:14:24;7.40;;;4.70;;
53040;SDS011;39326;42.650;23.248;2023-04-16T07:16:50;8.87;;;5.43;;
53040;SDS011;39326;42.650;23.248;2023-04-16T07:19:15;6.57;;;4.90;;
53040;SDS011;39326;42.650;23.248;2023-04-16T07:21:41;9.57;;;5.73;;
53040;SDS011;39326;42.650;23.248;2023-04-16T07:24:08;6.77;;;5.33;;
53040;SDS011;39326;42.650;23.248;2023-04-16T07:26:35;6.20;;;5.60;;
53040;SDS011;39326;42.650;23.248;2023-04-16T07:29:01;7.60;;;6.03;;
53040;SDS011;39326;42.650;23.248;2023-04-16T07:31:26;7.40;;;6.50;;
53040;SDS011;39326;42.650;23.248;2023-04-16T07:33:52;7.43;;;6.73;;
53040;SDS011;39326;42.650;23.248;2023-04-16T07:36:17;9.57;;;7.17;;
53040;SDS011;39326;42.650;23.248;2023-04-16T07:38:43;9.00;;;7.13;;
53040;SDS011;39326;42.650;23.248;2023-04-16T07:41:08;8.27;;;7.30;;
53040;SDS011;39326;42.650;23.248;2023-04-16T07:43:34;7.90;;;7.10;;
53040;SDS011;39326;42.650;23.248;2023-04-16T07:45:59;9.23;;;6.50;;
53040;SDS011;39326;42.650;23.248;2023-04-16T07:48:25;11.70;;;8.45;;
53040;SDS011;39326;42.650;23.248;2023-04-16T07:50:50;8.35;;;7.20;;
53040;SDS011;39326;42.650;23.248;2023-04-16T07:53:15;9.98;;;7.82;;
53040;SDS011;39326;42.650;23.248;2023-04-16T07:55:41;8.95;;;6.85;;
53040;SDS011;39326;42.650;23.248;2023-04-16T07:58:06;9.37;;;6.73;;
53040;SDS011;39326;42.650;23.248;2023-04-16T08:00:33;8.23;;;7.43;;
53040;SDS011;39326;42.650;23.248;2023-04-16T08:02:59;8.55;;;7.30;;
53040;SDS011;39326;42.650;23.248;2023-04-16T08:05:25;10.40;;;8.23;;
53040;SDS011;39326;42.650;23.248;2023-04-16T08:07:50;8.80;;;7.53;;
53040;SDS011;39326;42.650;23.248;2023-04-16T08:10:15;8.05;;;6.55;;
53040;SDS011;39326;42.650;23.248;2023-04-16T08:12:41;7.47;;;6.68;;
53040;SDS011;39326;42.650;23.248;2023-04-16T08:15:06;7.68;;;6.28;;
53040;SDS011;39326;42.650;23.248;2023-04-16T08:17:32;6.00;;;5.35;;
53040;SDS011;39326;42.650;23.248;2023-04-16T08:19:58;7.90;;;5.57;;
53040;SDS011;39326;42.650;23.248;2023-04-16T08:22:24;7.78;;;6.50;;
53040;SDS011;39326;42.650;23.248;2023-04-16T08:24:50;8.40;;;5.93;;
53040;SDS011;39326;42.650;23.248;2023-04-16T08:27:16;6.72;;;5.72;;
53040;SDS011;39326;42.650;23.248;2023-04-16T08:29:41;6.93;;;5.47;;
53040;SDS011;39326;42.650;23.248;2023-04-16T08:32:07;8.13;;;4.55;;
53040;SDS011;39326;42.650;23.248;2023-04-16T08:34:34;5.07;;;4.60;;
53040;SDS011;39326;42.650;23.248;2023-04-16T08:37:00;5.55;;;4.25;;
53040;SDS011;39326;42.650;23.248;2023-04-16T08:39:25;6.32;;;4.57;;
53040;SDS011;39326;42.650;23.248;2023-04-16T08:41:51;6.47;;;4.07;;
53040;SDS011;39326;42.650;23.248;2023-04-16T08:44:25;7.72;;;4.25;;
53040;SDS011;39326;42.650;23.248;2023-04-16T08:46:53;6.63;;;3.92;;
53040;SDS011;39326;42.650;23.248;2023-04-16T08:49:23;5.05;;;3.72;;
53040;SDS011;39326;42.650;23.248;2023-04-16T08:51:55;4.60;;;3.22;;
53040;SDS011;39326;42.650;23.248;2023-04-16T08:54:42;4.18;;;3.08;;
53040;SDS011;39326;42.650;23.248;2023-04-16T08:57:10;4.97;;;3.95;;
53040;SDS011;39326;42.650;23.248;2023-04-16T08:59:39;5.32;;;3.30;;
53040;SDS011;39326;42.650;23.248;2023-04-16T09:02:06;7.13;;;5.70;;
53040;SDS011;39326;42.650;23.248;2023-04-16T09:04:35;7.28;;;3.72;;
53040;SDS011;39326;42.650;23.248;2023-04-16T09:07:02;4.40;;;3.92;;
53040;SDS011;39326;42.650;23.248;2023-04-16T09:09:29;5.97;;;4.80;;
53040;SDS011;39326;42.650;23.248;2023-04-16T09:11:55;4.18;;;3.13;;
53040;SDS011;39326;42.650;23.248;2023-04-16T09:14:20;4.35;;;2.90;;
53040;SDS011;39326;42.650;23.248;2023-04-16T09:16:46;5.97;;;3.92;;
53040;SDS011;39326;42.650;23.248;2023-04-16T09:19:15;6.18;;;3.90;;
53040;SDS011;39326;42.650;23.248;2023-04-16T09:21:41;5.50;;;3.75;;
53040;SDS011;39326;42.650;23.248;2023-04-16T09:24:09;5.68;;;3.25;;
53040;SDS011;39326;42.650;23.248;2023-04-16T09:26:35;3.85;;;2.97;;
53040;SDS011;39326;42.650;23.248;2023-04-16T09:29:01;4.45;;;2.90;;
53040;SDS011;39326;42.650;23.248;2023-04-16T09:31:26;4.68;;;3.53;;
53040;SDS011;39326;42.650;23.248;2023-04-16T09:36:35;4.45;;;3.03;;
53040;SDS011;39326;42.650;23.248;2023-04-16T09:39:01;4.18;;;2.90;;
53040;SDS011;39326;42.650;23.248;2023-04-16T09:41:32;4.38;;;3.20;;
53040;SDS011;39326;42.650;23.248;2023-04-16T09:44:00;3.38;;;2.92;;
53040;SDS011;39326;42.650;23.248;2023-04-16T09:46:29;6.38;;;3.78;;
53040;SDS011;39326;42.650;23.248;2023-04-16T09:48:55;4.32;;;2.88;;
53040;SDS011;39326;42.650;23.248;2023-04-16T09:51:21;4.95;;;3.08;;
53040;SDS011;39326;42.650;23.248;2023-04-16T09:53:47;4.50;;;3.13;;
53040;SDS011;39326;42.650;23.248;2023-04-16T09:56:16;4.95;;;3.42;;
53040;SDS011;39326;42.650;23.248;2023-04-16T09:58:42;4.20;;;2.80;;
53040;SDS011;39326;42.650;23.248;2023-04-16T10:01:08;3.38;;;2.40;;
53040;SDS011;39326;42.650;23.248;2023-04-16T10:03:37;3.17;;;2.65;;
53040;SDS011;39326;42.650;23.248;2023-04-16T10:08:44;3.40;;;2.50;;
53040;SDS011;39326;42.650;23.248;2023-04-16T10:11:11;3.20;;;2.67;;
53040;SDS011;39326;42.650;23.248;2023-04-16T10:13:37;3.67;;;2.42;;
53040;SDS011;39326;42.650;23.248;2023-04-16T10:16:02;3.30;;;2.47;;
53040;SDS011;39326;42.650;23.248;2023-04-16T10:18:28;6.28;;;2.42;;
53040;SDS011;39326;42.650;23.248;2023-04-16T10:20:55;2.63;;;2.42;;
53040;SDS011;39326;42.650;23.248;2023-04-16T10:23:21;2.53;;;2.20;;
53040;SDS011;39326;42.650;23.248;2023-04-16T10:25:47;3.20;;;2.40;;
53040;SDS011;39326;42.650;23.248;2023-04-16T10:28:14;4.97;;;2.70;;
53040;SDS011;39326;42.650;23.248;2023-04-16T10:30:41;3.42;;;2.60;;
53040;SDS011;39326;42.650;23.248;2023-04-16T10:33:16;3.75;;;2.08;;
53040;SDS011;39326;42.650;23.248;2023-04-16T10:35:46;4.47;;;2.17;;
53040;SDS011;39326;42.650;23.248;2023-04-16T10:38:21;6.78;;;4.97;;
53040;SDS011;39326;42.650;23.248;2023-04-16T10:40:49;10.40;;;8.52;;
53040;SDS011;39326;42.650;23.248;2023-04-16T10:43:16;14.18;;;11.82;;
53040;SDS011;39326;42.650;23.248;2023-04-16T10:45:42;4.45;;;3.78;;
53040;SDS011;39326;42.650;23.248;2023-04-16T10:48:07;3.08;;;2.40;;
53040;SDS011;39326;42.650;23.248;2023-04-16T10:50:34;4.47;;;2.88;;
53040;SDS011;39326;42.650;23.248;2023-04-16T10:53:43;7.63;;;6.80;;
53040;SDS011;39326;42.650;23.248;2023-04-16T10:55:57;5.25;;;2.70;;
53040;SDS011;39326;42.650;23.248;2023-04-16T10:58:26;5.28;;;2.67;;
53040;SDS011;39326;42.650;23.248;2023-04-16T11:00:52;3.78;;;2.10;;
53040;SDS011;39326;42.650;23.248;2023-04-16T11:03:18;5.45;;;2.60;;
53040;SDS011;39326;42.650;23.248;2023-04-16T11:05:44;5.30;;;3.00;;
53040;SDS011;39326;42.650;23.248;2023-04-16T11:08:13;2.58;;;2.35;;
53040;SDS011;39326;42.650;23.248;2023-04-16T11:10:40;3.70;;;2.67;;
53040;SDS011;39326;42.650;23.248;2023-04-16T11:13:06;5.50;;;2.60;;
53040;SDS011;39326;42.650;23.248;2023-04-16T11:15:33;3.05;;;2.03;;
53040;SDS011;39326;42.650;23.248;2023-04-16T11:17:58;2.85;;;2.35;;
53040;SDS011;39326;42.650;23.248;2023-04-16T11:20:25;3.75;;;2.35;;
53040;SDS011;39326;42.650;23.248;2023-04-16T11:22:52;4.82;;;2.70;;
53040;SDS011;39326;42.650;23.248;2023-04-16T11:25:19;4.47;;;2.92;;
53040;SDS011;39326;42.650;23.248;2023-04-16T11:27:45;3.50;;;2.63;;
53040;SDS011;39326;42.650;23.248;2023-04-16T11:30:11;6.97;;;3.03;;
53040;SDS011;39326;42.650;23.248;2023-04-16T11:32:37;3.03;;;2.63;;
53040;SDS011;39326;42.650;23.248;2023-04-16T11:35:04;3.45;;;2.75;;
53040;SDS011;39326;42.650;23.248;2023-04-16T11:37:38;4.05;;;2.50;;
53040;SDS011;39326;42.650;23.248;2023-04-16T11:40:04;2.92;;;2.63;;
53040;SDS011;39326;42.650;23.248;2023-04-16T11:42:31;3.50;;;2.72;;
53040;SDS011;39326;42.650;23.248;2023-04-16T11:44:57;2.90;;;2.60;;
53040;SDS011;39326;42.650;23.248;2023-04-16T11:47:27;5.50;;;2.72;;
53040;SDS011;39326;42.650;23.248;2023-04-16T11:49:54;3.80;;;2.78;;
53040;SDS011;39326;42.650;23.248;2023-04-16T11:52:26;3.92;;;2.65;;
53040;SDS011;39326;42.650;23.248;2023-04-16T11:54:55;3.55;;;2.80;;
53040;SDS011;39326;42.650;23.248;2023-04-16T11:57:26;3.38;;;2.60;;
53040;SDS011;39326;42.650;23.248;2023-04-16T11:59:56;6.05;;;3.38;;
53040;SDS011;39326;42.650;23.248;2023-04-16T12:05:30;3.67;;;3.15;;
53040;SDS011;39326;42.650;23.248;2023-04-16T12:08:00;5.53;;;2.88;;
53040;SDS011;39326;42.650;23.248;2023-04-16T12:10:28;4.32;;;2.70;;
53040;SDS011;39326;42.650;23.248;2023-04-16T12:13:09;3.17;;;2.60;;
53040;SDS011;39326;42.650;23.248;2023-04-16T12:16:15;4.20;;;3.20;;
53040;SDS011;39326;42.650;23.248;2023-04-16T12:18:27;5.80;;;3.03;;
53040;SDS011;39326;42.650;23.248;2023-04-16T12:20:53;5.90;;;2.90;;
53040;SDS011;39326;42.650;23.248;2023-04-16T12:23:22;3.80;;;2.88;;
53040;SDS011;39326;42.650;23.248;2023-04-16T12:25:49;2.83;;;2.17;;
53040;SDS011;39326;42.650;23.248;2023-04-16T12:28:26;4.13;;;2.55;;
53040;SDS011;39326;42.650;23.248;2023-04-16T12:30:56;3.97;;;2.55;;
53040;SDS011;39326;42.650;23.248;2023-04-16T12:33:22;5.05;;;2.67;;
53040;SDS011;39326;42.650;23.248;2023-04-16T12:35:47;4.65;;;2.50;;
53040;SDS011;39326;42.650;23.248;2023-04-16T12:38:13;4.57;;;2.42;;
53040;SDS011;39326;42.650;23.248;2023-04-16T12:40:39;5.00;;;2.33;;
53040;SDS011;39326;42.650;23.248;2023-04-16T12:43:05;4.68;;;2.20;;
53040;SDS011;39326;42.650;23.248;2023-04-16T12:45:30;4.70;;;2.50;;
53040;SDS011;39326;42.650;23.248;2023-04-16T12:47:56;2.78;;;2.10;;
53040;SDS011;39326;42.650;23.248;2023-04-16T12:50:21;5.55;;;2.72;;
53040;SDS011;39326;42.650;23.248;2023-04-16T12:52:47;3.88;;;2.60;;
53040;SDS011;39326;42.650;23.248;2023-04-16T12:55:12;3.97;;;2.08;;
53040;SDS011;39326;42.650;23.248;2023-04-16T12:57:38;3.20;;;1.95;;
53040;SDS011;39326;42.650;23.248;2023-04-16T13:00:04;3.92;;;1.77;;
53040;SDS011;39326;42.650;23.248;2023-04-16T13:02:31;2.58;;;1.80;;
53040;SDS011;39326;42.650;23.248;2023-04-16T13:04:56;2.22;;;1.40;;
53040;SDS011;39326;42.650;23.248;2023-04-16T13:07:22;2.78;;;1.63;;
53040;SDS011;39326;42.650;23.248;2023-04-16T13:09:48;1.95;;;1.73;;
53040;SDS011;39326;42.650;23.248;2023-04-16T13:12:14;2.88;;;1.65;;
53040;SDS011;39326;42.650;23.248;2023-04-16T13:14:39;1.95;;;1.40;;
53040;SDS011;39326;42.650;23.248;2023-04-16T13:17:05;2.53;;;1.55;;
53040;SDS011;39326;42.650;23.248;2023-04-16T13:19:31;2.88;;;1.85;;
53040;SDS011;39326;42.650;23.248;2023-04-16T13:21:57;3.45;;;2.20;;
53040;SDS011;39326;42.650;23.248;2023-04-16T13:24:23;5.50;;;2.45;;
53040;SDS011;39326;42.650;23.248;2023-04-16T13:26:49;3.97;;;2.47;;
53040;SDS011;39326;42.650;23.248;2023-04-16T13:29:16;7.00;;;2.88;;
53040;SDS011;39326;42.650;23.248;2023-04-16T13:31:42;8.82;;;3.53;;
53040;SDS011;39326;42.650;23.248;2023-04-16T13:34:08;11.05;;;3.38;;
53040;SDS011;39326;42.650;23.248;2023-04-16T13:36:34;7.70;;;3.28;;
53040;SDS011;39326;42.650;23.248;2023-04-16T13:38:59;7.47;;;3.20;;
53040;SDS011;39326;42.650;23.248;2023-04-16T13:41:25;7.90;;;3.58;;
53040;SDS011;39326;42.650;23.248;2023-04-16T13:43:51;7.43;;;3.55;;
53040;SDS011;39326;42.650;23.248;2023-04-16T13:46:16;6.47;;;3.40;;
53040;SDS011;39326;42.650;23.248;2023-04-16T13:48:43;8.40;;;3.40;;
53040;SDS011;39326;42.650;23.248;2023-04-16T13:51:09;4.00;;;2.47;;
53040;SDS011;39326;42.650;23.248;2023-04-16T13:53:34;4.27;;;2.20;;
53040;SDS011;39326;42.650;23.248;2023-04-16T13:56:00;3.50;;;1.90;;
53040;SDS011;39326;42.650;23.248;2023-04-16T13:58:27;3.10;;;1.50;;
53040;SDS011;39326;42.650;23.248;2023-04-16T14:00:53;1.93;;;1.70;;
53040;SDS011;39326;42.650;23.248;2023-04-16T14:03:18;2.37;;;1.83;;
53040;SDS011;39326;42.650;23.248;2023-04-16T14:05:44;3.40;;;1.90;;
53040;SDS011;39326;42.650;23.248;2023-04-16T14:08:09;2.13;;;1.70;;
53040;SDS011;39326;42.650;23.248;2023-04-16T14:10:35;4.13;;;1.83;;
53040;SDS011;39326;42.650;23.248;2023-04-16T14:13:00;2.77;;;1.90;;
53040;SDS011;39326;42.650;23.248;2023-04-16T14:15:26;2.80;;;1.70;;
53040;SDS011;39326;42.650;23.248;2023-04-16T14:17:53;2.37;;;1.90;;
53040;SDS011;39326;42.650;23.248;2023-04-16T14:20:19;3.20;;;2.00;;
53040;SDS011;39326;42.650;23.248;2023-04-16T14:22:45;3.30;;;2.35;;
53040;SDS011;39326;42.650;23.248;2023-04-16T14:25:10;2.58;;;2.08;;
53040;SDS011;39326;42.650;23.248;2023-04-16T14:27:36;3.50;;;2.10;;
53040;SDS011;39326;42.650;23.248;2023-04-16T14:30:01;2.20;;;1.95;;
53040;SDS011;39326;42.650;23.248;2023-04-16T14:32:27;4.22;;;2.42;;
53040;SDS011;39326;42.650;23.248;2023-04-16T14:34:52;2.67;;;2.10;;
53040;SDS011;39326;42.650;23.248;2023-04-16T14:37:18;4.13;;;2.20;;